X  Luk Metar data     EKYT Aalborg
Temperatur
9°C Temperatur
0°C Duggpunkt
54% Fugtighed



Vind
5 M/S
12 MPT
19 KM/T
10 KNOB



10°
Nord
Nuværende forhold

Klart Klart
Tryk 1022.92 (hPa) - 30.21 (inHg)
Sigt 6.2 (mil) - 10 (km)
Lufthavn
Lufthavnskode EKYT

Lokation: Aalborg
Afstand: 55 (km)

Metar:
EKYT 281250Z 01010KT CAVOK 09/M00 Q1023

Tid: 28-03-2020 13:50 CET